Map

Track Data

SID SEASON NUMBER BASIN SUBBASIN NAME ISO_TIME NATURE LAT LON WMO_WIND WMO_PRES WMO_AGENCY TRACK_TYPE DIST2LAND LANDFALL IFLAG USA_AGENCY USA_ATCF_ID USA_LAT USA_LON USA_RECORD USA_STATUS USA_WIND USA_PRES USA_SSHS USA_R34_NE USA_R34_SE USA_R34_SW USA_R34_NW USA_R50_NE USA_R50_SE USA_R50_SW USA_R50_NW USA_R64_NE USA_R64_SE USA_R64_SW USA_R64_NW USA_POCI USA_ROCI USA_RMW USA_EYE TOKYO_LAT TOKYO_LON TOKYO_GRADE TOKYO_WIND TOKYO_PRES TOKYO_R50_DIR TOKYO_R50_LONG TOKYO_R50_SHORT TOKYO_R30_DIR TOKYO_R30_LONG TOKYO_R30_SHORT TOKYO_LAND CMA_LAT CMA_LON CMA_CAT CMA_WIND CMA_PRES HKO_LAT HKO_LON HKO_CAT HKO_WIND HKO_PRES NEWDELHI_LAT NEWDELHI_LON NEWDELHI_GRADE NEWDELHI_WIND NEWDELHI_PRES NEWDELHI_CI NEWDELHI_DP NEWDELHI_POCI REUNION_LAT REUNION_LON REUNION_TYPE REUNION_WIND REUNION_PRES REUNION_TNUM REUNION_CI REUNION_RMW REUNION_R34_NE REUNION_R34_SE REUNION_R34_SW REUNION_R34_NW REUNION_R50_NE REUNION_R50_SE REUNION_R50_SW REUNION_R50_NW REUNION_R64_NE REUNION_R64_SE REUNION_R64_SW REUNION_R64_NW BOM_LAT BOM_LON BOM_TYPE BOM_WIND BOM_PRES BOM_TNUM BOM_CI BOM_RMW BOM_R34_NE BOM_R34_SE BOM_R34_SW BOM_R34_NW BOM_R50_NE BOM_R50_SE BOM_R50_SW BOM_R50_NW BOM_R64_NE BOM_R64_SE BOM_R64_SW BOM_R64_NW BOM_ROCI BOM_POCI BOM_EYE BOM_POS_METHOD BOM_PRES_METHOD NADI_LAT NADI_LON NADI_CAT NADI_WIND NADI_PRES WELLINGTON_LAT WELLINGTON_LON WELLINGTON_WIND WELLINGTON_PRES DS824_LAT DS824_LON DS824_STAGE DS824_WIND DS824_PRES TD9636_LAT TD9636_LON TD9636_STAGE TD9636_WIND TD9636_PRES TD9635_LAT TD9635_LON TD9635_WIND TD9635_PRES TD9635_ROCI NEUMANN_LAT NEUMANN_LON NEUMANN_CLASS NEUMANN_WIND NEUMANN_PRES MLC_LAT MLC_LON MLC_CLASS MLC_WIND MLC_PRES USA_GUST BOM_GUST BOM_GUST_PER REUNION_GUST REUNION_GUST_PER USA_SEAHGT USA_SEARAD_NE USA_SEARAD_SE USA_SEARAD_SW USA_SEARAD_NW STORM_SPEED STORM_DIR
1964278N21091 1964 93 NI BB NOT_NAMED 1964-10-03 18:00:00 TS 20.7000 91.3000 main 100 100 O________O____ jtwc_io IO111964 20.7000 91.3000 -1 20.7000 91.3000 TC 3 317
1964278N21091 1964 93 NI BB NOT_NAMED 1964-10-03 21:00:00 TS 20.8050 91.1951 main 103 103 P________P____ IO111964 20.8050 91.1951 -1 20.8050 91.1951 TC 3 317
1964278N21091 1964 93 NI BB NOT_NAMED 1964-10-04 00:00:00 TS 20.9000 91.1000 main 106 106 O________O____ jtwc_io IO111964 20.9000 91.1000 -1 20.9000 91.1000 TC 25 2 317
1964278N21091 1964 93 NI BB NOT_NAMED 1964-10-04 03:00:00 TS 20.9866 91.0133 main 108 105 P________PO___ IO111964 20.9850 91.0149 -1 20.9850 91.0149 TC 25 21.0000 91.0000 1 3 317
1964278N21091 1964 93 NI BB NOT_NAMED 1964-10-04 06:00:00 TS 21.1141 90.8835 main 105 76 O________OP___ jtwc_io IO111964 21.1000 90.9000 -1 21.1000 90.9000 TC 25 21.1705 90.8177 1 4 316
1964278N21091 1964 93 NI BB NOT_NAMED 1964-10-04 09:00:00 TS 21.3090 90.6805 main 76 45 P________PP___ IO111964 21.3001 90.6927 -1 21.3001 90.6927 TC 25 21.3327 90.6481 1 5 317
1964278N21091 1964 93 NI BB NOT_NAMED 1964-10-04 12:00:00 TS 21.4929 90.5015 main 45 30 O________OP___ jtwc_io IO111964 21.5000 90.5000 -1 21.5000 90.5000 TC 25 21.4786 90.5044 1 4 321
1964278N21091 1964 93 NI BB NOT_NAMED 1964-10-04 15:00:00 TS 21.6150 90.4183 main 30 23 P________PO___ IO111964 21.6225 90.4274 -1 21.6225 90.4274 TC 25 21.6000 90.4000 1 2 331
1964278N21091 1964 93 NI BB NOT_NAMED 1964-10-04 18:00:00 TS 21.6980 90.3810 main 23 15 O________OP___ jtwc_io IO111964 21.7000 90.4000 -1 21.7000 90.4000 TC 25 21.6940 90.3429 1 2 331
1964278N21091 1964 93 NI BB NOT_NAMED 1964-10-04 21:00:00 TS 21.7491 90.3349 main 15 10 P________PP___ IO111964 21.7350 90.3425 -1 21.7350 90.3425 TC 25 21.7774 90.3197 1 1 332
1964278N21091 1964 93 NI BB NOT_NAMED 1964-10-05 00:00:00 TS 21.8240 90.3039 main 10 0 O________OP___ jtwc_io IO111964 21.8000 90.3000 -1 21.8000 90.3000 TC 25 21.8721 90.3117 1 2 351
1964278N21091 1964 93 NI BB NOT_NAMED 1964-10-05 03:00:00 TS 21.9800 90.3000 main 0 0 P________PO___ IO111964 21.9700 90.3000 -1 21.9700 90.3000 TC 25 22.0000 90.3000 1 4 356
1964278N21091 1964 93 NI BB NOT_NAMED 1964-10-05 06:00:00 TS 22.1963 90.2898 main 0 0 O________OP___ jtwc_io IO111964 22.2000 90.3000 -1 22.2000 90.3000 TC 25 22.1890 90.2693 1 5 354
1964278N21091 1964 93 NI BB NOT_NAMED 1964-10-05 09:00:00 TS 22.4375 90.2533 main 0 0 P________PP___ IO111964 22.4500 90.2650 -1 22.4500 90.2650 TC 25 22.4124 90.2298 1 5 350
1964278N21091 1964 93 NI BB NOT_NAMED 1964-10-05 12:00:00 TS 22.6849 90.1918 main 0 0 O________OP___ jtwc_io IO111964 22.7000 90.2000 -1 22.7000 90.2000 TC 25 22.6546 90.1755 1 5 344
1964278N21091 1964 93 NI BB NOT_NAMED 1964-10-05 15:00:00 TS 22.9000 90.1100 main 0 0 P________PO___ IO111964 22.9000 90.1149 -1 22.9000 90.1149 TC 25 22.9000 90.1000 1 5 337
1964278N21091 1964 93 NI BB NOT_NAMED 1964-10-05 18:00:00 TS 23.1138 89.9976 main 0 0 O________OP___ jtwc_io IO111964 23.1000 90.0000 -1 23.1000 90.0000 TC 25 23.1413 89.9927 1 5 333
1964278N21091 1964 93 NI BB NOT_NAMED 1964-10-05 21:00:00 TS 23.3600 89.8551 main 0 0 P________PP___ IO111964 23.3500 89.8501 -1 23.3500 89.8501 TC 25 23.3801 89.8653 1 6 331
1964278N21091 1964 93 NI BB NOT_NAMED 1964-10-06 00:00:00 TS 23.6013 89.7101 main 0 0 O________OP___ jtwc_io IO111964 23.6000 89.7000 -1 23.6000 89.7000 TC 25 23.6038 89.7302 1 5 333
1964278N21091 1964 93 NI BB NOT_NAMED 1964-10-06 03:00:00 TS 23.8150 89.5950 main 0 0 P________PO___ IO111964 23.8225 89.5924 -1 23.8225 89.5924 TC 25 23.8000 89.6000 1 4 333
1964278N21091 1964 93 NI BB NOT_NAMED 1964-10-06 06:00:00 TS 23.9873 89.5002 main 0 0 O________OP___ jtwc_io IO111964 24.0000 89.5000 -1 24.0000 89.5000 TC 25 23.9618 89.5007 1 3 329
1964278N21091 1964 93 NI BB NOT_NAMED 1964-10-06 09:00:00 TS 24.1083 89.4024 main 0 0 P________PP___ IO111964 24.1150 89.4000 -1 24.1150 89.4000 TC 25 24.0949 89.4072 1 3 320
1964278N21091 1964 93 NI BB NOT_NAMED 1964-10-06 12:00:00 TS 24.2018 89.3034 main 0 0 O________OP___ jtwc_io IO111964 24.2000 89.3000 -1 24.2000 89.3000 TC 25 24.2055 89.3101 1 3 317
1964278N21091 1964 93 NI BB NOT_NAMED 1964-10-06 15:00:00 TS 24.3050 89.2050 main 0 0 P________PO___ IO111964 24.3075 89.2075 -1 24.3075 89.2075 TC 25 24.3000 89.2000 1 3 317
1964278N21091 1964 93 NI BB NOT_NAMED 1964-10-06 18:00:00 TS 24.4018 89.0990 main 0 0 O________OP___ jtwc_io IO111964 24.4000 89.1000 -1 24.4000 89.1000 TC 25 24.4053 89.0969 1 3 307
1964278N21091 1964 93 NI BB NOT_NAMED 1964-10-06 21:00:00 TS 24.4698 88.9683 main 0 0 P________PP___ IO111964 24.4575 88.9650 -1 24.4575 88.9650 TC 25 24.4945 88.9751 1 3 294
1964278N21091 1964 93 NI BB NOT_NAMED 1964-10-07 00:00:00 TS 24.5205 88.8052 main 0 0 O________OP___ jtwc_io IO111964 24.5000 88.8000 -1 24.5000 88.8000 TC 25 24.5614 88.8157 1 3 288
1964278N21091 1964 93 NI BB NOT_NAMED 1964-10-07 03:00:00 TS 24.5716 88.6250 main 0 0 P________PO___ IO111964 24.5573 88.6375 -1 24.5573 88.6375 TC 25 24.6000 88.6000 1 4 282
1964278N21091 1964 93 NI BB NOT_NAMED 1964-10-07 06:00:00 TS 24.6025 88.3662 main 0 0 O________OP___ jtwc_io IO111964 24.6000 88.4000 -1 24.6000 88.4000 TC 25 24.6063 88.3154 1 6 273
1964278N21091 1964 93 NI BB NOT_NAMED 1964-10-07 09:00:00 TS 24.6000 88.0105 main 0 0 P________PP___ IO111964 24.6104 88.0375 -1 24.6104 88.0375 TC 25 24.5862 87.9746 1 7 268
1964278N21091 1964 93 NI BB NOT_NAMED 1964-10-07 12:00:00 TS 24.5740 87.5982 main 0 0 O________OP___ jtwc_io IO111964 24.6000 87.6000 -1 24.6000 87.6000 TC 25 24.5479 87.5965 1 7 262
1964278N21091 1964 93 NI BB NOT_NAMED 1964-10-07 15:00:00 NR 24.5000 87.2000 main 0 __________O___ IO111964 -1 TC 24.5000 87.2000 1 7 258

About IBTrACS Database

This database is a web-friendly format of International Best Track Archive for Climate Stewardship (IBTrACS), a global best track data archive curated by NOAA dating back to 1842.

Updated: 2021-10-21